IRONMAN 70.3 Otepää 2018
Skip Navigation Links
Results
Leaderboard
Course Map
16 Jun 2018
HyperLink
Page 1 of 2 (57 items)
[1]2
Pos
Race No
Fav
Name
Time
Category
Cat Pos
Gender
Gen Pos
Club
Country
Start
Swim
T1
Cycle
T2
Run
151Sander Aavik00:27:50B1Male1Ujumise SpordiklubiEST 00:00:0500:02:4200:00:5900:17:3700:01:0100:05:29
2103Simo Aksalu00:28:00B2Male2Ujumise SpordiklubiEST 00:00:0100:02:4700:01:0400:17:3200:01:0100:05:35
365Rasmus Boisen00:28:01C1Male3Tartu UjumisklubiEST 00:00:0200:03:0200:01:0600:17:4100:00:4500:05:26
413Gregor Rasva00:28:28C2Male4AudentesEST 00:00:0200:02:4800:01:0700:17:5400:00:4700:05:50
556Trevor Kägo00:28:56C3Male5 EST 00:00:0200:02:4800:01:1700:17:4000:00:5300:06:16
644Raigo Tischler00:29:17B3Male6Paide UjumisklubiEST 00:00:1100:02:4300:01:1000:18:0700:00:5400:06:21
727Kirke Kübar00:29:36C1Female1Tartu UjumisklubiEST 00:00:1000:02:4300:01:0400:17:5600:00:4800:07:03
811Dmitrii Adalshin00:30:04B4Male7 RUS 00:00:2400:03:3000:01:2200:18:1500:00:5800:05:57
929Lars Sebastian Antoniak00:30:05C4Male8 EST 00:00:0900:03:0300:01:1800:17:5800:00:5400:06:50
1052Savelii Muravev00:30:20B5Male9 RUS 00:00:0600:03:3300:01:1900:18:0700:01:0400:06:16
112Alexandr Salnikov00:30:24B6Male10 RUS 00:00:2500:02:5200:01:2300:18:3400:01:2800:06:05
1291Grete Maria Savitsch00:30:25B1Female2 EST 00:00:1700:03:1000:01:1200:18:4000:00:5900:06:23
1353Stefan Saks00:30:38B7Male11Ujumise SpordiklubiEST 00:00:0800:03:1500:01:2200:18:2100:01:0100:06:36
1420Johanna Kübar00:30:41C2Female3Tartu UjumisklubiEST 00:00:1300:02:5100:01:1000:19:2700:00:5600:06:15
1599Erik Anja00:30:41B8Male12Ujumise SpordiklubiEST 00:00:1100:02:4400:01:1600:19:3000:00:5300:06:16
1646Richard Lõoke00:30:56C5Male1321CC TriatloniklubiEST 00:00:1300:03:1100:01:2000:18:3400:00:5800:06:52
1769Maria Liis Alt00:31:00C3Female4 EST 00:00:3400:03:4400:01:2500:18:4600:00:5800:06:05
1860Rouzov Danila00:31:06C6Male14 BLR 00:00:2100:03:4100:01:2700:19:1100:00:5700:05:48
1910Arti Piirmaa00:31:17C7Male15Paide UjumisklubiEST 00:00:1100:03:0700:01:1700:19:0200:01:0200:06:48
2085Lucas Lauring00:31:30C8Male16 EST 00:00:1600:03:3000:01:4100:18:5400:01:0500:06:18
2194Danila Zagoruiko00:31:34C9Male17 RUS 00:00:0500:02:5800:01:4000:19:4600:01:0300:06:04
2295Arthur Zagoruiko00:31:34C10Male18 RUS 00:00:0600:02:5700:01:2600:19:5500:00:4900:06:24
2342Oliver Piller00:32:05C11Male19 EST 00:00:1300:03:0800:01:2500:19:5200:00:5900:06:39
2430Leonid Tots00:32:10C12Male20 RUS 00:00:2800:03:2400:01:2600:19:0700:01:1900:06:50
2563Hendrik Rohtla00:32:13C13Male21Paide UjumisklubiEST 00:00:0800:03:0800:01:2600:18:5100:01:0400:07:42
2636Marleene Randmaa00:33:35C4Female5Paide UjumisklubiEST 00:00:1600:03:0800:01:2500:20:5800:00:5900:07:02
2739Maxim Nesterenko00:33:47B9Male22 RUS 00:00:2300:03:2600:01:2000:21:0700:00:5500:06:56
2873Franz Andresson00:33:50C14Male23TopEST 00:00:1900:03:1200:01:4600:21:0700:00:5800:06:46
2940Meri-Lill Plagnaud00:33:54C5Female6 EST 00:00:2100:04:0000:01:1800:21:2100:01:0100:06:13
3047Richard Marcus Arge00:33:57C15Male24Jetoil ASEST 00:00:0700:03:2800:02:1800:20:3300:01:0400:06:32
3119Jekabs Skolnieks00:34:02C16Male25 LAT 00:00:2400:04:2600:01:4300:20:2800:01:1900:06:03
328Annabel Türn00:34:45C6Female7Tartu UjumisklubiEST 00:00:1800:03:4700:01:1900:21:5300:00:5400:06:50
3361Kazimirr Herchykau00:34:58C17Male26Tristyle BelarusBLR 00:00:2300:04:2800:01:4400:20:1800:01:2200:07:05
3426Kert Pallo00:35:16C18Male27 EST 00:00:1900:04:5300:01:5100:19:3800:01:2600:07:26
359Annabel Laiva00:35:39C7Female8 EST 00:00:3000:04:1100:01:3900:21:3400:01:0900:07:04
3671Hugo Markus Kelk00:35:53C19Male28 EST 00:00:2100:04:2600:01:5600:21:3200:01:0200:06:55
3745Rica Veevo00:36:08C8Female9Tartu UjumisklubiEST 00:00:1600:03:3200:01:2600:22:0200:00:5900:08:07
3843Petr Vasenin00:36:15C20Male29 RUS 00:00:3200:04:2800:02:0200:22:1400:00:5600:06:33
3948Robert Sammel00:36:18C21Male30Vinni VAKEST 00:00:3100:03:4300:01:3300:22:2800:01:1400:07:18
40101Karl Ramses Tiislär00:36:33B10Male31Nõmme spordikoolEST 00:00:2900:04:2300:01:5400:22:2900:01:0100:06:44
4137Mart Kruusalu00:37:05C22Male32 EST 00:00:3400:04:1200:03:0000:21:0400:01:1000:07:38
42100Karl Rasmus Tiislär00:38:23B11Male33Nõmme spordikoolEST 00:00:3100:05:0700:01:5600:22:4400:01:0100:07:34
4388Karmo Liiv00:38:46B12Male34 EST 00:00:3200:06:4100:02:5000:20:3800:01:0500:07:30
4418Ivan Belykh00:40:07C23Male35 RUS 00:00:2600:04:2500:01:4900:23:3800:01:0800:09:04
4589Oliver Iida00:40:46C24Male36 EST 00:00:2100:04:3300:03:1100:24:0300:01:2400:07:33
4659Mihkel Mattias Lõhmus00:41:54C25Male37 EST 00:00:3600:05:3300:02:2600:23:0400:01:2500:09:23
4725Katariina Alexandra Veerpalu00:43:29C9Female10 EST 00:00:2700:06:1300:03:0500:24:0100:01:3900:08:29
4835Mariia Smyslova00:44:20B2Female11 RUS 00:00:1800:04:1700:02:0100:27:3500:01:1300:09:13
4976Marie Pihlap00:44:39C10Female12 EST 00:00:2800:07:1700:02:1100:26:1300:01:0800:07:48
506Ann Helen Eelmets00:45:19C11Female13 EST 00:00:3300:07:1200:02:1000:25:1800:02:0300:08:34
Page 1 of 2 (57 items)
[1]2

HyperLink Copyright (c) G Vincent, 2018